SBOSBO LAS / KLAS
Speedbird OnlineSpeedbird Online LAS / KLAS

Harry Reid International
22:45 6.6°C

Location Las Vegas, United States
Latitude: 36.08010101
Longitude: -115.1520004
Web Airport Website | Wikipedia
Altitude 665 Meter / 2181 Feet
Distance 8,423 KM / 5,234 Miles
from London.
Time Zone UTC -8 hours (America/Los_Angeles)
Codes IATA: LAS
ICAO: KLAS
Currency £1 equals USD 1.24
Runways
RunwayLength (m)Surface
01L2740Concrete
01R2978Asphalt
08L4424Asphalt
08R3208Asphalt
19L2978Asphalt
19R2740Concrete
26L3208Asphalt
26R4424Asphalt
Radio
TypeDescriptionFrequency
APPLAS VEGAS APP125.025
ATISATIS132.4
CLDCLNC DEL118
DEPLAS VEGAS DEP125.02
GNDGround121.1
TWRTower119.9
UNICUNICOM122.95
Live ATC
METAR KLAS 290556Z 00000KT 10SM CLR 07/M04 A2990 RMK AO2 SLP125 T00721044 10128 20061 56002
TAF KLAS 290520Z 2906/3012 20006KT P6SM SCT200 FM291400 16008KT P6SM FEW100 FM291900 19014G22KT P6SM FEW100 FM300300 22012KT P6SM SCT080 FM301000 20010KT P6SM BKN060
Weather As Of 28 Jan 2023 22:45
Description Clear sky
Wind 9 km/h from North-West (320°)
Cloud Cover 0%
Precipitation Rain: none, Snow: none
Sunrise 06:44
Sunset 17:02
Lounges The Club at LAS , Terminal 3
Rotations During the last 90 days there were
88 flights from LHR
89 flights to LHR



Support Speedbird Online

© 2017-2023 Speedbird Online